KPUW/PUW METAR and TAF weather

Enter ICAO airport designator
Station Type Date Time Source
KPUW METAR 2020/04/09 18:53 UTC NOAA

KPUW 091853Z AUTO VRB03KT 10SM CLR 16/M03 A3012 RMK AO2 SLP204 T01611028


Station Type Date Time Source
KPUW Decoded METAR 2020/04/09 18:53 UTC NOAA

PULLMAN/MOSCOW RGNL AIRPORT , WA, United States (KPUW) 46-45N 117-07W 773M
Apr 09, 2020 - 02:53 PM EDT / 2020.04.09 1853 UTC
Wind: Variable at 3 MPH (3 KT):0
Visibility: 10 mile(s):0
Sky conditions: clear
Temperature: 61.0 F (16.1 C)
Dew Point: 27.0 F (-2.8 C)
Relative Humidity: 27%
Pressure (altimeter): 30.12 in. Hg (1019 hPa)
ob: KPUW 091853Z AUTO VRB03KT 10SM CLR 16/M03 A3012 RMK AO2 SLP204 T01611028
cycle: 19

Station Type Date Time Source
KPUW TAF 2020/04/09 18:22 UTC NOAA

TAF KPUW 091720Z 0918/1018 VRB04KT P6SM SCT250
FM101600 19010KT P6SM FEW150 BKN200

Example: see airport list